Augusta, Kansas
Current Conditions -  °F | °C
As of 5:15 PM on Thursday 20 Nov 2014 (Local Time) from KEQA Reporting Station
Clear Clear  
Wind Chill: 36°   Ceiling: Unl
Heat Index: 41°   Visibility: 10mi
Dew Point: 27°   Wind: 8mph
Humidity: 57%   Direction: 80°E
Pressure: 30.1"   Gusts: NA
Location:  37.68°N, 96.98°W
Report Text: KEQA 202315Z AUTO 08007KT 10SM CLR 05/M03 A3010 RMK AO2
Loading
Personal Weather Stations






























Interactive Weather Map New forecast layout! Learn more

10-Day Weather Forecast

Advertisements
Track Severe Weather on mobile